Time;durP1;ratioP1;P1;durP2;ratioP2;P2;SDS_P1;SDS_P2;PMS_P1;PMS_P2;Temp;Humidity;BMP_temperature;BMP_pressure;BME280_temperature;BME280_humidity;BME280_pressure;Samples;Min_cycle;Max_cycle;Signal;HPM_P1;HPM_P2
2022/06/12 00:00:30;;;;;;;10.75;3.67;;;21.90;61.50;;;;;;5062135;28;20032;-59
2022/06/12 00:02:56;;;;;;;10.80;3.70;;;21.90;61.60;;;;;;5063141;28;20050;-58
2022/06/12 00:05:23;;;;;;;10.05;3.83;;;21.90;61.60;;;;;;5062992;28;20489;-59
2022/06/12 00:07:48;;;;;;;11.65;3.47;;;21.90;61.50;;;;;;5069097;28;20421;-58
2022/06/12 00:10:14;;;;;;;10.13;3.40;;;21.90;61.70;;;;;;5064992;28;20025;-58
2022/06/12 00:12:41;;;;;;;12.63;3.78;;;21.90;61.70;;;;;;5063766;28;20033;-58
2022/06/12 00:15:07;;;;;;;10.00;3.47;;;21.90;61.60;;;;;;5060749;28;20032;-59
2022/06/12 00:17:33;;;;;;;10.95;3.53;;;21.90;61.70;;;;;;5063431;28;20037;-58
2022/06/12 00:19:58;;;;;;;9.15;3.53;;;21.80;61.70;;;;;;5081914;28;20796;-59
2022/06/12 00:22:24;;;;;;;9.85;3.30;;;21.80;61.70;;;;;;5064488;28;20040;-58
2022/06/12 00:24:49;;;;;;;12.13;3.53;;;21.80;61.60;;;;;;5061373;28;20470;-59
2022/06/12 00:27:15;;;;;;;10.55;3.70;;;21.80;61.70;;;;;;5062650;28;20024;-59
2022/06/12 00:29:42;;;;;;;12.45;3.95;;;21.80;61.70;;;;;;5063542;28;20099;-59
2022/06/12 00:32:13;;;;;;;9.15;3.40;;;21.80;61.40;;;;;;5062323;28;20057;-59
2022/06/12 00:34:41;;;;;;;10.50;3.28;;;21.80;61.60;;;;;;5066031;28;20060;-58
2022/06/12 00:37:07;;;;;;;10.75;3.30;;;21.80;61.50;;;;;;5064766;28;20028;-59
2022/06/12 00:39:33;;;;;;;11.10;3.67;;;21.80;61.50;;;;;;5063105;28;20486;-59
2022/06/12 00:41:59;;;;;;;10.85;3.50;;;21.80;61.50;;;;;;5066766;28;20035;-59
2022/06/12 00:44:30;;;;;;;10.90;3.40;;;21.80;61.50;;;;;;5065547;28;20025;-58
2022/06/12 00:47:00;;;;;;;8.45;3.25;;;21.70;61.40;;;;;;5070904;28;20028;-59
2022/06/12 00:49:40;;;;;;;9.93;3.33;;;21.70;62.50;;;;;;5068522;28;20512;-59
2022/06/12 00:52:21;;;;;;;8.45;3.28;;;21.70;61.40;;;;;;5067500;28;20031;-58
2022/06/12 00:54:50;;;;;;;11.35;3.40;;;21.70;61.30;;;;;;5067516;28;20381;-58
2022/06/12 00:57:17;;;;;;;10.13;3.25;;;21.70;61.30;;;;;;5068671;28;20028;-59
2022/06/12 00:59:46;;;;;;;10.05;3.30;;;21.70;61.30;;;;;;5067115;28;20021;-59
2022/06/12 01:02:14;;;;;;;8.80;3.10;;;21.70;61.30;;;;;;5069359;28;20041;-59
2022/06/12 01:07:32;;;;;;;10.40;3.50;;;21.70;61.20;;;;;;5068462;28;20031;-59
2022/06/12 01:10:01;;;;;;;11.05;3.50;;;21.70;61.30;;;;;;5070586;28;20119;-59
2022/06/12 01:12:29;;;;;;;10.82;3.47;;;21.70;61.10;;;;;;5067359;28;20032;-59
2022/06/12 01:15:01;;;;;;;12.38;3.10;;;21.70;61.10;;;;;;5067573;28;20031;-58
2022/06/12 01:17:27;;;;;;;10.77;3.15;;;21.70;61.10;;;;;;5065838;28;20098;-59
2022/06/12 01:19:55;;;;;;;7.85;3.00;;;21.70;61.10;;;;;;5067095;28;20481;-59
2022/06/12 01:22:36;;;;;;;11.07;2.88;;;21.70;62.20;;;;;;5063160;28;20036;-59
2022/06/12 01:25:21;;;;;;;8.95;3.20;;;21.60;61.10;;;;;;5065157;28;20043;-59
2022/06/12 01:28:19;;;;;;;10.05;3.25;;;21.70;61.10;;;;;;5067537;28;20457;-59
2022/06/12 01:30:52;;;;;;;10.82;3.50;;;21.60;61.10;;;;;;5068323;28;20046;-59
2022/06/12 01:33:32;;;;;;;10.13;3.25;;;21.60;61.10;;;;;;5068322;28;20644;-59
2022/06/12 01:36:37;;;;;;;9.52;3.08;;;21.60;61.10;;;;;;5063258;28;20981;-59
2022/06/12 01:39:07;;;;;;;11.07;3.60;;;21.60;61.10;;;;;;5061127;28;20025;-59
2022/06/12 01:41:41;;;;;;;7.45;3.30;;;21.60;61.10;;;;;;5065508;28;23020;-59
2022/06/12 01:44:31;;;;;;;8.93;3.00;;;21.60;61.10;;;;;;5067435;28;20108;-59
2022/06/12 01:47:02;;;;;;;10.02;3.33;;;21.60;61.00;;;;;;5068831;28;20028;-59
2022/06/12 01:49:59;;;;;;;8.88;2.92;;;21.50;61.00;;;;;;5067689;28;20513;-59
2022/06/12 01:52:29;;;;;;;10.02;3.10;;;21.50;61.00;;;;;;5065445;28;20097;-59
2022/06/12 01:55:17;;;;;;;9.73;3.25;;;21.50;61.00;;;;;;5064534;28;20041;-59
2022/06/12 01:57:56;;;;;;;7.10;2.83;;;21.50;61.00;;;;;;5064082;28;20020;-59
2022/06/12 02:00:22;;;;;;;7.15;2.83;;;21.50;61.00;;;;;;5065483;28;20532;-59
2022/06/12 02:02:52;;;;;;;10.77;3.17;;;21.50;61.10;;;;;;5066170;28;20020;-59
2022/06/12 02:05:30;;;;;;;6.28;2.63;;;21.50;61.10;;;;;;5065848;28;20471;-59
2022/06/12 02:08:24;;;;;;;7.80;3.10;;;21.50;61.10;;;;;;5069898;28;20028;-59
2022/06/12 02:10:56;;;;;;;10.32;3.20;;;21.50;61.10;;;;;;5019913;28;20045;-58
2022/06/12 02:13:25;;;;;;;8.48;3.00;;;21.50;61.10;;;;;;5020544;28;20518;-58
2022/06/12 02:16:04;;;;;;;8.93;3.13;;;21.50;61.10;;;;;;5005532;28;20037;-59
2022/06/12 02:18:43;;;;;;;7.45;3.03;;;21.50;61.10;;;;;;5021385;28;20059;-59
2022/06/12 02:21:24;;;;;;;8.90;3.20;;;21.40;61.10;;;;;;5004978;28;20617;-59
2022/06/12 02:23:59;;;;;;;10.55;3.17;;;21.50;61.10;;;;;;4990537;28;20028;-59
2022/06/12 02:26:41;;;;;;;7.70;2.90;;;21.40;61.10;;;;;;5010037;28;20516;-59
2022/06/12 02:29:11;;;;;;;9.55;3.17;;;21.40;61.10;;;;;;5003345;28;20437;-59
2022/06/12 02:31:41;;;;;;;8.85;3.03;;;21.50;61.20;;;;;;5011945;28;20030;-59
2022/06/12 02:34:13;;;;;;;9.73;3.17;;;21.50;61.10;;;;;;5005905;28;20026;-59
2022/06/12 02:36:40;;;;;;;7.70;2.92;;;21.40;61.20;;;;;;5007627;28;20143;-59
2022/06/12 02:39:15;;;;;;;8.55;3.08;;;21.40;61.20;;;;;;5004693;28;20529;-59
2022/06/12 02:41:47;;;;;;;7.07;2.97;;;21.40;61.10;;;;;;5007807;28;20085;-59
2022/06/12 02:44:15;;;;;;;8.05;3.00;;;21.40;61.30;;;;;;5022486;28;20026;-59
2022/06/12 02:47:06;;;;;;;8.65;3.22;;;21.40;61.20;;;;;;5010412;28;20030;-59
2022/06/12 02:49:33;;;;;;;8.32;2.92;;;21.40;61.20;;;;;;5066233;28;20117;-59
2022/06/12 02:52:05;;;;;;;6.78;2.50;;;21.40;61.30;;;;;;5067691;28;20754;-59
2022/06/12 02:54:41;;;;;;;6.28;3.00;;;21.30;61.20;;;;;;5064299;28;20059;-59
2022/06/12 02:57:19;;;;;;;6.60;2.53;;;21.40;61.30;;;;;;5063399;28;20111;-59
2022/06/12 03:00:00;;;;;;;7.68;2.97;;;21.30;61.30;;;;;;5062573;28;20020;-59
2022/06/12 03:02:55;;;;;;;8.77;2.92;;;21.30;61.20;;;;;;5064399;28;20044;-59
2022/06/12 03:05:26;;;;;;;6.65;2.78;;;21.30;61.30;;;;;;5064677;28;20078;-58
2022/06/12 03:08:01;;;;;;;7.05;2.80;;;21.30;61.30;;;;;;5075883;28;20039;-59
2022/06/12 03:10:31;;;;;;;7.72;3.00;;;21.30;61.30;;;;;;5069599;28;20131;-59
2022/06/12 03:12:56;;;;;;;6.70;2.83;;;21.30;61.30;;;;;;5062350;28;20103;-59
2022/06/12 03:15:39;;;;;;;8.93;2.80;;;21.30;61.30;;;;;;5064616;28;20146;-58
2022/06/12 03:18:07;;;;;;;6.53;2.53;;;21.30;61.30;;;;;;5061775;28;20016;-59
2022/06/12 03:20:56;;;;;;;7.28;2.80;;;21.30;61.30;;;;;;5059880;28;20136;-58
2022/06/12 03:23:40;;;;;;;7.75;2.72;;;21.30;61.30;;;;;;5066010;28;20121;-58
2022/06/12 03:26:08;;;;;;;7.13;2.80;;;21.30;61.30;;;;;;5062540;28;20115;-59
2022/06/12 03:28:46;;;;;;;7.28;3.10;;;21.30;61.40;;;;;;5064341;28;20035;-59
2022/06/12 03:31:18;;;;;;;7.00;2.60;;;21.20;61.30;;;;;;5048143;28;20036;-59
2022/06/12 03:33:54;;;;;;;6.75;2.60;;;21.20;61.20;;;;;;5064455;28;20429;-59
2022/06/12 03:36:30;;;;;;;9.05;3.13;;;21.20;61.30;;;;;;5060320;28;20041;-59
2022/06/12 03:39:14;;;;;;;7.80;3.00;;;21.20;61.40;;;;;;5049267;28;20051;-59
2022/06/12 03:41:49;;;;;;;8.20;2.92;;;21.20;61.30;;;;;;5042311;28;20547;-59
2022/06/12 03:44:33;;;;;;;7.30;2.67;;;21.20;61.30;;;;;;5047485;28;20028;-58
2022/06/12 03:47:07;;;;;;;7.30;2.67;;;21.20;61.30;;;;;;5050066;28;20028;-59
2022/06/12 03:49:36;;;;;;;8.35;2.97;;;21.20;61.40;;;;;;5066360;28;20040;-59
2022/06/12 03:52:17;;;;;;;8.18;3.30;;;21.20;61.50;;;;;;5065318;28;20401;-59
2022/06/12 03:55:02;;;;;;;6.35;2.70;;;21.20;61.50;;;;;;5061733;28;20107;-59
2022/06/12 03:57:51;;;;;;;7.72;2.90;;;21.20;61.50;;;;;;5063075;28;20035;-59
2022/06/12 04:00:29;;;;;;;6.85;2.85;;;21.20;61.50;;;;;;5058059;28;20032;-59
2022/06/12 04:02:59;;;;;;;6.35;2.60;;;21.10;61.50;;;;;;5078725;28;20476;-59
2022/06/12 04:05:33;;;;;;;10.82;3.05;;;21.20;61.60;;;;;;5062370;28;20032;-59
2022/06/12 04:08:00;;;;;;;7.93;2.78;;;21.20;61.50;;;;;;5066425;28;20024;-59
2022/06/12 04:10:29;;;;;;;7.25;2.92;;;21.10;61.60;;;;;;5065843;28;20033;-59
2022/06/12 04:12:55;;;;;;;7.72;3.08;;;21.10;61.50;;;;;;5049474;28;20055;-59
2022/06/12 04:15:28;;;;;;;8.13;3.10;;;21.10;61.50;;;;;;5066574;28;20060;-58
2022/06/12 04:17:55;;;;;;;9.93;3.28;;;21.10;61.60;;;;;;5058135;28;20028;-59
2022/06/12 04:20:50;;;;;;;7.72;2.90;;;21.10;61.60;;;;;;5061623;28;20115;-59
2022/06/12 04:23:19;;;;;;;;;;;21.10;61.60;;;;;;5063315;28;20029;-59
2022/06/12 04:25:48;;;;;;;6.93;2.80;;;21.10;61.60;;;;;;5067325;28;20306;-59
2022/06/12 04:28:25;;;;;;;6.68;2.67;;;21.10;61.60;;;;;;5063850;28;20023;-58
2022/06/12 04:30:53;;;;;;;7.35;2.95;;;21.10;61.60;;;;;;5063311;28;20032;-59
2022/06/12 04:33:49;;;;;;;7.50;2.95;;;21.10;61.60;;;;;;5064654;28;20035;-59
2022/06/12 04:36:15;;;;;;;7.70;2.60;;;21.10;61.60;;;;;;5064259;28;20028;-59
2022/06/12 04:38:41;;;;;;;5.10;2.58;;;21.00;61.50;;;;;;5064613;28;20071;-59
2022/06/12 04:41:07;;;;;;;7.18;2.80;;;21.10;61.60;;;;;;5064016;28;20032;-59
2022/06/12 04:43:32;;;;;;;7.47;2.95;;;21.00;61.70;;;;;;5064831;28;20028;-59
2022/06/12 04:45:58;;;;;;;7.45;2.90;;;21.00;61.60;;;;;;5063730;28;20024;-59
2022/06/12 04:48:34;;;;;;;6.38;2.63;;;21.00;61.60;;;;;;5064744;28;20389;-59
2022/06/12 04:51:00;;;;;;;7.40;2.83;;;21.00;61.60;;;;;;5092755;28;20458;-60
2022/06/12 04:53:26;;;;;;;8.15;3.10;;;21.00;61.70;;;;;;5065284;28;20056;-58
2022/06/12 04:55:51;;;;;;;7.07;2.95;;;21.00;61.70;;;;;;5065292;28;20432;-59
2022/06/12 04:58:17;;;;;;;8.13;2.85;;;21.00;61.70;;;;;;5062377;28;20099;-59
2022/06/12 05:00:43;;;;;;;7.82;3.00;;;21.00;61.70;;;;;;5064663;28;20566;-59
2022/06/12 05:03:08;;;;;;;7.28;2.90;;;21.00;61.70;;;;;;5060037;28;20037;-59
2022/06/12 05:05:34;;;;;;;8.02;2.85;;;21.00;61.70;;;;;;5062739;28;20447;-59
2022/06/12 05:08:00;;;;;;;8.40;2.88;;;21.00;61.70;;;;;;5064539;28;20034;-59
2022/06/12 05:10:26;;;;;;;7.07;2.90;;;21.00;61.70;;;;;;5066919;28;20528;-59
2022/06/12 05:12:52;;;;;;;7.05;3.03;;;21.00;61.80;;;;;;5064992;28;20028;-59
2022/06/12 05:15:18;;;;;;;7.50;3.30;;;21.00;61.80;;;;;;5062647;28;20027;-59
2022/06/12 05:17:45;;;;;;;8.00;2.95;;;21.00;61.80;;;;;;5061458;28;20028;-59
2022/06/12 05:20:15;;;;;;;6.90;2.60;;;21.00;61.80;;;;;;5062828;28;20032;-59
2022/06/12 05:22:41;;;;;;;7.43;2.85;;;20.90;61.80;;;;;;5064976;28;20051;-58
2022/06/12 05:25:07;;;;;;;8.38;2.75;;;21.00;61.80;;;;;;5063700;28;20017;-59
2022/06/12 05:27:36;;;;;;;7.72;3.00;;;21.00;61.80;;;;;;5064380;28;20473;-59
2022/06/12 05:30:02;;;;;;;8.00;2.95;;;21.00;61.90;;;;;;5066068;28;20036;-59
2022/06/12 05:32:29;;;;;;;7.25;2.58;;;20.90;61.90;;;;;;5066217;28;20041;-59
2022/06/12 05:34:54;;;;;;;6.68;2.80;;;21.00;62.00;;;;;;5073432;28;20024;-59
2022/06/12 05:37:20;;;;;;;7.55;2.70;;;21.00;62.00;;;;;;5067413;28;20036;-58
2022/06/12 05:39:46;;;;;;;6.78;2.90;;;20.90;61.90;;;;;;5064254;28;20027;-59
2022/06/12 05:42:12;;;;;;;7.97;3.05;;;20.90;61.90;;;;;;5067405;28;20127;-59
2022/06/12 05:44:37;;;;;;;7.40;2.90;;;20.90;61.90;;;;;;5067693;28;20027;-59
2022/06/12 05:47:07;;;;;;;5.80;2.60;;;20.90;61.90;;;;;;5067004;28;20028;-59
2022/06/12 05:49:34;;;;;;;6.65;2.72;;;20.90;61.90;;;;;;5067883;28;20039;-59
2022/06/12 05:52:00;;;;;;;6.78;3.08;;;20.90;61.90;;;;;;5069066;28;20105;-59
2022/06/12 05:54:26;;;;;;;7.50;2.97;;;20.90;61.90;;;;;;5071605;28;20024;-58
2022/06/12 05:56:51;;;;;;;5.93;2.80;;;20.90;61.90;;;;;;5068885;28;20047;-59
2022/06/12 05:59:17;;;;;;;6.78;2.80;;;20.90;62.00;;;;;;5078129;28;20135;-59
2022/06/12 06:01:43;;;;;;;6.15;2.80;;;20.90;61.90;;;;;;5066719;28;20489;-59
2022/06/12 06:04:09;;;;;;;7.57;3.03;;;20.90;61.90;;;;;;5065859;28;20035;-59
2022/06/12 06:06:40;;;;;;;8.10;2.50;;;20.90;61.90;;;;;;5068545;28;20111;-59
2022/06/12 06:09:06;;;;;;;8.48;2.80;;;20.90;62.30;;;;;;5063622;28;20032;-59
2022/06/12 06:11:31;;;;;;;7.30;2.72;;;21.00;62.40;;;;;;5064877;28;20025;-59
2022/06/12 06:13:57;;;;;;;7.60;2.72;;;21.00;62.50;;;;;;5063226;28;20021;-59
2022/06/12 06:16:23;;;;;;;6.85;2.90;;;21.00;62.50;;;;;;5062772;28;20039;-56
2022/06/12 06:18:48;;;;;;;7.10;2.42;;;21.00;62.50;;;;;;5069349;28;20034;-59
2022/06/12 06:21:15;;;;;;;8.80;3.05;;;21.10;62.70;;;;;;5068120;28;20649;-59
2022/06/12 06:23:41;;;;;;;8.70;3.00;;;21.10;62.80;;;;;;5062899;28;20029;-59
2022/06/12 06:26:07;;;;;;;10.02;2.80;;;21.20;63.20;;;;;;5065771;28;20025;-59
2022/06/12 06:28:33;;;;;;;13.05;3.67;;;21.20;63.20;;;;;;5070433;28;20078;-59
2022/06/12 06:30:59;;;;;;;17.08;3.50;;;21.10;62.70;;;;;;5061149;28;20040;-58
2022/06/12 06:33:24;;;;;;;21.70;4.28;;;21.10;62.20;;;;;;5064684;28;20021;-58
2022/06/12 06:35:50;;;;;;;21.92;3.92;;;21.00;61.90;;;;;;5066627;28;20032;-58
2022/06/12 06:38:16;;;;;;;15.55;3.55;;;21.00;62.00;;;;;;5082279;28;20031;-59
2022/06/12 06:40:42;;;;;;;16.17;3.50;;;21.00;62.00;;;;;;5069780;28;20040;-59
2022/06/12 06:43:08;;;;;;;16.20;3.70;;;21.00;62.00;;;;;;5065092;28;20794;-59
2022/06/12 06:48:18;;;;;;;17.98;3.58;;;21.00;62.00;;;;;;5064344;28;20056;-59
2022/06/12 06:50:44;;;;;;;15.10;3.92;;;21.00;62.00;;;;;;5063592;28;20045;-59
2022/06/12 06:53:10;;;;;;;13.93;4.35;;;21.10;62.00;;;;;;5067401;28;20056;-59
2022/06/12 06:55:36;;;;;;;16.95;3.90;;;21.10;62.10;;;;;;5067733;28;20036;-59
2022/06/12 06:58:08;;;;;;;12.60;4.00;;;21.00;62.00;;;;;;5068865;28;20036;-59
2022/06/12 07:00:34;;;;;;;12.95;3.95;;;21.00;62.00;;;;;;5068357;28;20028;-59
2022/06/12 07:03:00;;;;;;;13.13;3.72;;;21.10;62.00;;;;;;5063347;28;20024;-58
2022/06/12 07:05:26;;;;;;;18.48;4.53;;;21.00;62.00;;;;;;5064416;28;20032;-58
2022/06/12 07:07:51;;;;;;;14.68;3.97;;;21.00;62.00;;;;;;5068200;28;20082;-59
2022/06/12 07:10:20;;;;;;;13.50;3.90;;;21.00;62.00;;;;;;5062593;28;20028;-59
2022/06/12 07:12:45;;;;;;;13.57;3.95;;;21.00;62.00;;;;;;5064058;28;20024;-58
2022/06/12 07:15:11;;;;;;;16.30;4.55;;;21.00;62.00;;;;;;5064168;28;20024;-59
2022/06/12 07:17:37;;;;;;;14.20;4.13;;;21.00;62.00;;;;;;5064426;28;20020;-59
2022/06/12 07:20:03;;;;;;;15.05;4.35;;;21.00;62.00;;;;;;5064776;28;20020;-59
2022/06/12 07:22:29;;;;;;;12.05;4.13;;;21.00;62.00;;;;;;5065333;28;20448;-59
2022/06/12 07:24:54;;;;;;;13.82;3.80;;;21.00;62.00;;;;;;5063626;28;20019;-59
2022/06/12 07:27:20;;;;;;;11.40;4.03;;;21.00;62.00;;;;;;5064717;28;20037;-57
2022/06/12 07:29:46;;;;;;;14.10;4.53;;;21.00;62.00;;;;;;5063744;28;20021;-59
2022/06/12 07:32:12;;;;;;;17.33;4.35;;;21.00;62.00;;;;;;5064364;28;20030;-58
2022/06/12 07:34:37;;;;;;;12.75;4.00;;;21.00;63.00;;;;;;5062798;28;20040;-59
2022/06/12 07:37:04;;;;;;;21.02;4.70;;;21.00;62.00;;;;;;5063206;28;20064;-59
2022/06/12 07:39:30;;;;;;;20.48;4.28;;;21.00;62.00;;;;;;5063783;28;20108;-59
2022/06/12 07:41:56;;;;;;;15.55;4.50;;;21.00;62.00;;;;;;5064788;28;20032;-58
2022/06/12 07:44:25;;;;;;;14.73;4.85;;;21.10;62.00;;;;;;5063464;28;20083;-59
2022/06/12 07:46:51;;;;;;;16.42;5.07;;;21.00;62.00;;;;;;5065900;28;20024;-59
2022/06/12 07:49:17;;;;;;;14.23;4.43;;;21.00;62.00;;;;;;5063015;28;20075;-59
2022/06/12 07:51:43;;;;;;;15.95;4.70;;;21.00;62.00;;;;;;5060542;28;20065;-59
2022/06/12 07:54:09;;;;;;;13.95;4.32;;;21.10;62.00;;;;;;5061080;28;20416;-58
2022/06/12 07:56:34;;;;;;;14.65;4.97;;;21.10;62.00;;;;;;5058616;28;20099;-59
2022/06/12 07:59:00;;;;;;;14.95;4.53;;;21.10;62.00;;;;;;5064981;28;20504;-58
2022/06/12 08:01:27;;;;;;;14.05;4.00;;;21.00;61.90;;;;;;5062609;28;20408;-59
2022/06/12 08:03:53;;;;;;;14.57;4.45;;;21.10;62.00;;;;;;5062185;28;20103;-59
2022/06/12 08:06:19;;;;;;;16.80;4.88;;;21.10;61.90;;;;;;5060341;28;20224;-59
2022/06/12 08:08:44;;;;;;;13.95;4.22;;;21.10;61.70;;;;;;5064886;28;20078;-59
2022/06/12 08:11:10;;;;;;;17.08;5.43;;;21.20;61.70;;;;;;5062578;28;20119;-59
2022/06/12 08:13:36;;;;;;;15.13;4.40;;;21.10;61.90;;;;;;5065747;28;20106;-59
2022/06/12 08:16:02;;;;;;;14.68;4.45;;;21.20;62.00;;;;;;5063915;28;20032;-58
2022/06/12 08:18:27;;;;;;;16.50;4.35;;;21.20;61.70;;;;;;5062955;28;20131;-59
2022/06/12 08:20:55;;;;;;;13.55;3.97;;;21.20;61.80;;;;;;5063804;28;20472;-58
2022/06/12 08:23:26;;;;;;;14.98;4.72;;;21.20;62.00;;;;;;5063389;28;20029;-58
2022/06/12 08:26:17;;;;;;;16.95;5.20;;;21.20;61.90;;;;;;5064891;28;20079;-58
2022/06/12 08:28:44;;;;;;;14.27;4.32;;;21.20;61.90;;;;;;5061194;28;20032;-58
2022/06/12 08:31:12;;;;;;;13.07;4.45;;;21.20;61.90;;;;;;5062855;28;20036;-58
2022/06/12 08:33:38;;;;;;;12.30;4.10;;;21.20;62.00;;;;;;5060083;28;20033;-58
2022/06/12 08:36:05;;;;;;;14.60;4.38;;;21.20;61.90;;;;;;5063437;28;20044;-58
2022/06/12 08:38:31;;;;;;;13.55;4.25;;;21.20;61.80;;;;;;5063587;28;20060;-58
2022/06/12 08:41:11;;;;;;;12.80;4.32;;;21.20;61.80;;;;;;5063819;28;20051;-58
2022/06/12 08:43:58;;;;;;;15.20;3.85;;;21.20;61.80;;;;;;5062457;28;20024;-58
2022/06/12 08:46:28;;;;;;;13.50;4.05;;;21.20;61.80;;;;;;5061457;28;20036;-58
2022/06/12 08:48:57;;;;;;;13.07;4.40;;;21.20;61.80;;;;;;5063883;28;20060;-57
2022/06/12 08:51:26;;;;;;;11.57;4.20;;;21.20;61.80;;;;;;5062949;28;20485;-58
2022/06/12 08:53:58;;;;;;;13.95;4.32;;;21.20;61.70;;;;;;5062135;28;20067;-59
2022/06/12 08:56:42;;;;;;;14.88;4.38;;;21.30;61.80;;;;;;5061969;28;20064;-58
2022/06/12 08:59:15;;;;;;;15.97;4.63;;;21.30;61.90;;;;;;5060914;28;20086;-58
2022/06/12 09:01:41;;;;;;;16.00;4.85;;;21.30;61.90;;;;;;5063665;28;20036;-58
2022/06/12 09:04:09;;;;;;;11.85;3.90;;;21.30;61.90;;;;;;5067550;28;20024;-58
2022/06/12 09:06:49;;;;;;;13.85;4.22;;;21.30;61.80;;;;;;5067157;28;20036;-58
2022/06/12 09:09:43;;;;;;;11.70;4.30;;;21.30;61.80;;;;;;5067308;28;20107;-58
2022/06/12 09:12:28;;;;;;;13.40;4.05;;;21.30;61.90;;;;;;5064034;28;20039;-58
2022/06/12 09:14:56;;;;;;;;;;;21.30;61.70;;;;;;5066768;28;20024;-59
2022/06/12 09:17:40;;;;;;;12.20;4.25;;;21.30;61.70;;;;;;5063368;28;20316;-58
2022/06/12 09:20:33;;;;;;;13.40;4.67;;;21.30;61.70;;;;;;5067763;28;20074;-58
2022/06/12 09:23:24;;;;;;;14.13;3.95;;;21.30;61.70;;;;;;5067021;28;20095;-59
2022/06/12 09:26:08;;;;;;;11.70;4.38;;;21.30;61.70;;;;;;5066614;28;20093;-58
2022/06/12 09:28:50;;;;;;;13.77;3.90;;;21.30;61.80;;;;;;5066219;28;20036;-58
2022/06/12 09:31:42;;;;;;;13.80;4.20;;;21.30;61.70;;;;;;5063977;28;20472;-58
2022/06/12 09:34:25;;;;;;;12.30;4.15;;;21.30;61.70;;;;;;5063475;28;20028;-58
2022/06/12 09:36:57;;;;;;;12.55;3.83;;;21.30;61.70;;;;;;5065803;28;20024;-58
2022/06/12 09:39:29;;;;;;;13.00;4.05;;;21.30;61.70;;;;;;5065696;28;20028;-58
2022/06/12 09:42:15;;;;;;;11.88;4.03;;;21.30;61.70;;;;;;5065863;28;20060;-59
2022/06/12 09:44:51;;;;;;;12.70;4.07;;;21.30;61.80;;;;;;5062880;28;20036;-58
2022/06/12 09:47:41;;;;;;;13.30;3.80;;;21.30;61.70;;;;;;5066727;28;20028;-58
2022/06/12 09:50:13;;;;;;;13.57;4.50;;;21.30;61.70;;;;;;5064996;28;20051;-59
2022/06/12 09:52:54;;;;;;;10.27;3.70;;;21.30;61.60;;;;;;5067646;28;20064;-58
2022/06/12 09:55:30;;;;;;;13.43;4.18;;;21.30;61.60;;;;;;5065837;28;20051;-58
2022/06/12 09:58:02;;;;;;;11.40;3.85;;;21.40;61.70;;;;;;5066626;28;20016;-58
2022/06/12 10:00:37;;;;;;;15.65;4.25;;;21.40;61.50;;;;;;5065573;28;20028;-58
2022/06/12 10:03:11;;;;;;;12.27;4.32;;;21.40;61.50;;;;;;5066094;28;20024;-58
2022/06/12 10:05:45;;;;;;;;;;;21.40;61.50;;;;;;5065192;28;20036;-58
2022/06/12 10:08:21;;;;;;;10.73;3.83;;;21.40;61.50;;;;;;5060768;28;20342;-58
2022/06/12 10:10:54;;;;;;;11.75;3.72;;;21.50;61.50;;;;;;5082478;28;20112;-58
2022/06/12 10:13:28;;;;;;;12.05;4.10;;;21.40;61.40;;;;;;5064477;28;20025;-58
2022/06/12 10:15:59;;;;;;;10.90;3.92;;;21.50;61.50;;;;;;5065391;28;20024;-58
2022/06/12 10:19:05;;;;;;;10.95;4.05;;;21.50;61.40;;;;;;5063782;28;20037;-58
2022/06/12 10:21:33;;;;;;;9.38;3.45;;;21.50;61.40;;;;;;5021102;28;20037;-58
2022/06/12 10:24:01;;;;;;;12.98;3.97;;;21.50;61.40;;;;;;5006234;28;20521;-58
2022/06/12 10:26:29;;;;;;;12.57;3.88;;;21.50;61.40;;;;;;5024951;28;20057;-58
2022/06/12 10:29:03;;;;;;;10.05;3.63;;;21.60;61.40;;;;;;5025415;28;20033;-58
2022/06/12 10:31:30;;;;;;;10.82;4.05;;;21.60;61.40;;;;;;5025215;28;20037;-58
2022/06/12 10:34:14;;;;;;;10.73;3.67;;;21.60;61.30;;;;;;5024418;28;20044;-58
2022/06/12 10:36:40;;;;;;;14.10;3.90;;;21.60;61.30;;;;;;5022193;28;20033;-58
2022/06/12 10:39:08;;;;;;;11.20;3.60;;;21.60;61.30;;;;;;5023768;28;20032;-58
2022/06/12 10:41:42;;;;;;;10.10;3.85;;;21.60;61.20;;;;;;5024937;28;20048;-58
2022/06/12 10:44:08;;;;;;;10.65;3.88;;;21.60;61.20;;;;;;5024922;28;20067;-58
2022/06/12 10:46:33;;;;;;;11.75;3.80;;;21.60;61.20;;;;;;5008572;28;20529;-58
2022/06/12 10:49:29;;;;;;;11.02;3.35;;;21.70;61.20;;;;;;5024169;28;20134;-58
2022/06/12 10:52:05;;;;;;;9.98;3.78;;;21.70;61.20;;;;;;5019436;28;20489;-58
2022/06/12 10:54:31;;;;;;;11.10;3.47;;;21.70;61.10;;;;;;5020677;28;20040;-58
2022/06/12 10:57:22;;;;;;;10.68;3.60;;;21.70;61.10;;;;;;5042358;28;20041;-58
2022/06/12 10:59:51;;;;;;;11.48;3.80;;;21.70;61.00;;;;;;5061947;28;20024;-58
2022/06/12 11:02:47;;;;;;;9.73;3.58;;;21.70;61.00;;;;;;5064719;28;20044;-58
2022/06/12 11:05:29;;;;;;;8.98;3.20;;;21.70;61.00;;;;;;5064867;28;20023;-58
2022/06/12 11:08:33;;;;;;;9.45;3.58;;;21.80;60.90;;;;;;5065702;28;20035;-58
2022/06/12 11:11:03;;;;;;;12.02;3.45;;;21.80;60.80;;;;;;5065036;28;20033;-58
2022/06/12 11:14:03;;;;;;;11.85;4.05;;;21.80;60.90;;;;;;5063283;28;20059;-58
2022/06/12 11:16:37;;;;;;;11.02;3.40;;;21.80;60.90;;;;;;5065887;28;20030;-58
2022/06/12 11:19:06;;;;;;;13.30;3.92;;;21.80;60.80;;;;;;5062982;28;20032;-58
2022/06/12 11:22:03;;;;;;;9.07;3.38;;;21.80;60.80;;;;;;5063374;28;20043;-59
2022/06/12 11:24:56;;;;;;;9.52;3.83;;;21.90;60.80;;;;;;5041101;28;20071;-58
2022/06/12 11:28:16;;;;;;;11.00;3.55;;;21.90;60.80;;;;;;5041922;28;20040;-58
2022/06/12 11:30:50;;;;;;;11.32;3.38;;;21.90;60.70;;;;;;4962579;28;20479;-58
2022/06/12 11:33:22;;;;;;;8.80;3.50;;;21.90;60.70;;;;;;4963853;28;20046;-58
2022/06/12 11:36:09;;;;;;;10.20;3.58;;;22.00;60.50;;;;;;4961853;28;20042;-58
2022/06/12 11:38:49;;;;;;;8.82;3.42;;;22.00;60.60;;;;;;4947534;28;20404;-58
2022/06/12 11:41:24;;;;;;;10.02;3.35;;;22.00;60.60;;;;;;4964342;28;20046;-58
2022/06/12 11:43:57;;;;;;;9.07;3.42;;;22.00;60.50;;;;;;4964886;28;20038;-58
2022/06/12 11:46:31;;;;;;;10.70;3.50;;;22.00;60.40;;;;;;4963149;28;20042;-58
2022/06/12 11:49:15;;;;;;;12.63;3.97;;;22.00;60.40;;;;;;4963076;28;20045;-58
2022/06/12 11:52:01;;;;;;;10.00;3.25;;;22.00;60.40;;;;;;4962008;28;20073;-58
2022/06/12 11:54:42;;;;;;;11.00;3.65;;;22.10;60.40;;;;;;4948617;28;20038;-58
2022/06/12 11:57:28;;;;;;;10.32;3.20;;;22.10;60.80;;;;;;4948953;28;20047;-58
2022/06/12 12:00:32;;;;;;;9.65;3.65;;;22.10;61.40;;;;;;4952405;28;20050;-58
2022/06/12 12:03:31;;;;;;;10.48;3.53;;;22.10;60.40;;;;;;4978955;28;20526;-58
2022/06/12 12:06:12;;;;;;;9.52;3.47;;;22.10;60.30;;;;;;4971608;28;20040;-58
2022/06/12 12:08:46;;;;;;;10.05;3.30;;;22.10;60.20;;;;;;5038772;28;20426;-59
2022/06/12 12:11:13;;;;;;;9.43;3.25;;;22.20;60.30;;;;;;5043832;28;20025;-58
2022/06/12 12:13:47;;;;;;;10.73;3.88;;;22.20;60.20;;;;;;5043142;28;20039;-58
2022/06/12 12:16:15;;;;;;;11.23;3.10;;;22.20;60.20;;;;;;5010452;28;20033;-58
2022/06/12 12:18:44;;;;;;;8.88;3.33;;;22.20;60.20;;;;;;5021536;28;20035;-57
2022/06/12 12:21:23;;;;;;;9.23;3.40;;;22.20;60.10;;;;;;5023808;28;20200;-58
2022/06/12 12:23:48;;;;;;;8.50;3.20;;;22.20;60.10;;;;;;5042070;28;20036;-58
2022/06/12 12:26:35;;;;;;;10.93;3.30;;;22.20;59.90;;;;;;5045189;28;20037;-58
2022/06/12 12:29:22;;;;;;;9.13;3.20;;;22.30;60.60;;;;;;5009267;28;20572;-58
2022/06/12 12:31:49;;;;;;;8.77;3.25;;;22.30;60.10;;;;;;5046166;28;20516;-58
2022/06/12 12:34:15;;;;;;;10.02;3.50;;;22.30;60.00;;;;;;5027920;28;20074;-58
2022/06/12 12:42:35;;;;;;;10.18;3.47;;;22.40;60.00;;;;;;5065777;28;20127;-58
2022/06/12 12:45:16;;;;;;;11.70;3.35;;;22.30;59.90;;;;;;5067352;28;20493;-59
2022/06/12 12:47:42;;;;;;;9.27;3.35;;;22.40;60.00;;;;;;5063104;28;20190;-59
2022/06/12 12:50:15;;;;;;;9.70;3.45;;;22.40;60.00;;;;;;5068279;28;20148;-58
2022/06/12 12:52:50;;;;;;;9.40;3.28;;;22.40;59.90;;;;;;5066374;28;20052;-58
2022/06/12 12:55:38;;;;;;;9.15;3.13;;;22.40;59.80;;;;;;5067611;28;20182;-58
2022/06/12 12:58:15;;;;;;;8.82;3.45;;;22.40;59.80;;;;;;5047558;28;20027;-58
2022/06/12 13:00:41;;;;;;;8.52;3.22;;;22.50;59.90;;;;;;5064957;28;20059;-58
2022/06/12 13:03:06;;;;;;;9.52;3.38;;;22.50;59.90;;;;;;5066325;28;20049;-58
2022/06/12 13:05:47;;;;;;;8.95;3.00;;;22.50;59.70;;;;;;5065846;28;20056;-58
2022/06/12 13:08:28;;;;;;;8.88;2.90;;;22.50;59.70;;;;;;5065712;28;20083;-58
2022/06/12 13:11:03;;;;;;;9.98;3.20;;;22.60;59.70;;;;;;5067497;28;20032;-58
2022/06/12 13:13:34;;;;;;;;;;;22.60;59.70;;;;;;5067435;28;20024;-58
2022/06/12 13:16:09;;;;;;;9.38;3.20;;;22.60;59.60;;;;;;5077989;28;19985;-58
2022/06/12 13:19:13;;;;;;;7.40;2.92;;;22.60;59.60;;;;;;5065089;28;20766;-58
2022/06/12 13:22:10;;;;;;;8.65;3.13;;;22.60;59.60;;;;;;5064287;28;20123;-58
2022/06/12 13:24:50;;;;;;;7.88;3.13;;;22.60;59.50;;;;;;5064786;28;20032;-58